Time;durP1;ratioP1;P1;durP2;ratioP2;P2;SDS_P1;SDS_P2;PMS_P1;PMS_P2;Temp;Humidity;BMP_temperature;BMP_pressure;BME280_temperature;BME280_humidity;BME280_pressure;Samples;Min_cycle;Max_cycle;Signal;HPM_P1;HPM_P2
2020/12/02 00:00:38;;;;;;;27.92;16.02;;;10.40;74.20;;;;;;5028673;28;20485;-72
2020/12/02 00:03:15;;;;;;;27.20;16.42;;;10.40;74.30;;;;;;5029787;28;20029;-72
2020/12/02 00:05:44;;;;;;;30.00;18.98;;;10.30;74.40;;;;;;5030377;28;20026;-72
2020/12/02 00:08:13;;;;;;;28.95;15.93;;;10.30;74.80;;;;;;5028062;28;20041;-72
2020/12/02 00:10:40;;;;;;;29.02;15.57;;;10.20;74.90;;;;;;5030046;28;20017;-72
2020/12/02 00:13:09;;;;;;;27.35;14.50;;;10.20;75.00;;;;;;5029793;28;20116;-72
2020/12/02 00:15:35;;;;;;;28.30;15.88;;;10.20;75.00;;;;;;5029477;28;20087;-72
2020/12/02 00:18:00;;;;;;;33.33;17.33;;;10.30;75.10;;;;;;5028066;28;20430;-73
2020/12/02 00:20:26;;;;;;;27.83;15.13;;;10.20;75.20;;;;;;5028128;28;20041;-72
2020/12/02 00:22:52;;;;;;;27.52;15.52;;;10.20;75.30;;;;;;5028716;28;20034;-72
2020/12/02 00:25:18;;;;;;;25.17;15.23;;;10.20;75.40;;;;;;5027262;28;20120;-72
2020/12/02 00:27:44;;;;;;;27.08;16.38;;;10.20;75.50;;;;;;5029924;28;20034;-72
2020/12/02 00:30:12;;;;;;;27.73;16.17;;;10.20;75.40;;;;;;5028749;28;20025;-72
2020/12/02 00:32:41;;;;;;;27.75;15.82;;;10.30;75.20;;;;;;5029872;28;20022;-72
2020/12/02 00:35:34;;;;;;;25.33;16.02;;;10.40;75.00;;;;;;5026586;28;20056;-72
2020/12/02 00:37:59;;;;;;;30.08;16.25;;;10.40;75.00;;;;;;5028103;28;20065;-72
2020/12/02 00:40:25;;;;;;;28.75;18.45;;;10.40;75.10;;;;;;5028382;28;20127;-72
2020/12/02 00:42:50;;;;;;;27.75;15.00;;;10.40;75.20;;;;;;5028236;28;20061;-72
2020/12/02 00:45:16;;;;;;;28.83;18.40;;;10.30;75.30;;;;;;5028989;28;20378;-71
2020/12/02 00:47:41;;;;;;;24.05;14.48;;;10.30;75.40;;;;;;5028366;28;20038;-72
2020/12/02 00:50:09;;;;;;;28.17;15.38;;;10.20;75.50;;;;;;5027997;28;20026;-72
2020/12/02 00:52:34;;;;;;;27.60;14.73;;;10.30;75.60;;;;;;5029139;28;20470;-72
2020/12/02 00:55:00;;;;;;;27.27;14.90;;;10.30;75.50;;;;;;5029874;28;20049;-72
2020/12/02 00:57:34;;;;;;;32.45;16.45;;;10.30;75.30;;;;;;5032428;28;20033;-72
2020/12/02 01:00:05;;;;;;;29.17;16.48;;;10.30;75.30;;;;;;5031628;28;20485;-72
2020/12/02 01:02:53;;;;;;;26.75;15.02;;;10.30;75.40;;;;;;5033675;28;20338;-71
2020/12/02 01:05:20;;;;;;;30.50;17.83;;;10.30;75.40;;;;;;5032709;28;20325;-72
2020/12/02 01:07:46;;;;;;;28.77;17.23;;;10.30;75.40;;;;;;5032798;28;20033;-72
2020/12/02 01:10:14;;;;;;;24.55;14.48;;;10.30;75.50;;;;;;5030704;28;20038;-71
2020/12/02 01:12:44;;;;;;;24.85;15.15;;;10.30;75.50;;;;;;5032944;28;20041;-72
2020/12/02 01:15:13;;;;;;;24.40;15.07;;;10.40;75.40;;;;;;5033171;28;20080;-72
2020/12/02 01:17:39;;;;;;;24.35;13.90;;;10.40;75.20;;;;;;5035846;28;20029;-72
2020/12/02 01:20:10;;;;;;;27.05;15.25;;;10.50;75.20;;;;;;5051916;28;20044;-72
2020/12/02 01:22:40;;;;;;;26.13;14.82;;;10.40;75.10;;;;;;5040839;28;20076;-72
2020/12/02 01:25:18;;;;;;;34.85;18.75;;;10.40;75.30;;;;;;5032352;28;20463;-72
2020/12/02 01:27:52;;;;;;;31.50;17.10;;;10.30;75.40;;;;;;5032406;28;20128;-72
2020/12/02 01:30:18;;;;;;;28.17;16.23;;;10.30;75.60;;;;;;5026079;28;20332;-71
2020/12/02 01:32:45;;;;;;;30.38;16.45;;;10.30;75.60;;;;;;5031525;28;20260;-72
2020/12/02 01:35:14;;;;;;;29.92;16.88;;;10.30;75.40;;;;;;5037584;28;20466;-72
2020/12/02 01:37:41;;;;;;;26.38;15.02;;;10.30;75.40;;;;;;5053258;28;20091;-73
2020/12/02 01:40:31;;;;;;;31.73;16.35;;;10.30;75.40;;;;;;5035179;28;20103;-72
2020/12/02 01:43:00;;;;;;;30.13;15.95;;;10.30;75.40;;;;;;5014384;28;20060;-72
2020/12/02 01:45:46;;;;;;;30.40;15.55;;;10.20;75.50;;;;;;5031964;28;20053;-72
2020/12/02 01:48:30;;;;;;;26.30;15.88;;;10.20;75.60;;;;;;5032414;28;20605;-72
2020/12/02 01:51:21;;;;;;;26.50;14.65;;;10.30;75.60;;;;;;5028073;28;20529;-72
2020/12/02 01:54:02;;;;;;;29.80;15.68;;;10.30;75.60;;;;;;5031562;28;20064;-72
2020/12/02 01:56:40;;;;;;;31.80;16.67;;;10.30;75.50;;;;;;5032314;28;20479;-72
2020/12/02 01:59:32;;;;;;;32.42;16.83;;;10.20;75.60;;;;;;5031967;28;20037;-72
2020/12/02 02:02:15;;;;;;;33.40;16.90;;;10.30;75.70;;;;;;5017580;28;20522;-72
2020/12/02 02:04:50;;;;;;;28.63;17.85;;;10.30;75.60;;;;;;5031176;28;20053;-72
2020/12/02 02:07:24;;;;;;;38.88;18.38;;;10.30;75.60;;;;;;5030031;28;20025;-72
2020/12/02 02:09:55;;;;;;;32.63;16.42;;;10.30;75.40;;;;;;5031413;28;20064;-72
2020/12/02 02:12:36;;;;;;;35.17;16.98;;;10.40;75.40;;;;;;5032114;28;20050;-72
2020/12/02 02:15:49;;;;;;;26.98;15.93;;;10.40;75.30;;;;;;5031911;28;20087;-72
2020/12/02 02:18:22;;;;;;;29.00;16.55;;;10.30;75.20;;;;;;4934621;29;20266;-72
2020/12/02 02:20:54;;;;;;;28.48;15.85;;;10.40;75.30;;;;;;5013851;28;20048;-72
2020/12/02 02:23:20;;;;;;;32.45;18.65;;;10.40;75.20;;;;;;5030437;28;20460;-72
2020/12/02 02:26:13;;;;;;;30.42;15.85;;;10.30;75.30;;;;;;5031894;28;20045;-72
2020/12/02 02:28:52;;;;;;;28.73;16.55;;;10.30;75.40;;;;;;5032091;28;20029;-72
2020/12/02 02:31:21;;;;;;;31.33;16.80;;;10.40;75.30;;;;;;5027046;28;20033;-73
2020/12/02 02:33:49;;;;;;;29.20;18.10;;;10.40;75.20;;;;;;5030980;28;20091;-72
2020/12/02 02:36:19;;;;;;;35.45;19.05;;;10.40;75.30;;;;;;5035103;28;20116;-72
2020/12/02 02:38:44;;;;;;;31.40;18.63;;;10.30;75.30;;;;;;5029935;28;20036;-72
2020/12/02 02:41:10;;;;;;;31.10;16.95;;;10.30;75.40;;;;;;5031521;28;20045;-72
2020/12/02 02:43:38;;;;;;;28.45;15.75;;;10.40;75.30;;;;;;5030097;28;20037;-72
2020/12/02 02:46:05;;;;;;;27.65;15.55;;;10.50;75.20;;;;;;5030533;28;20030;-72
2020/12/02 02:48:32;;;;;;;27.27;15.65;;;11.00;75.30;;;;;;5028167;28;20044;-72
2020/12/02 02:50:58;;;;;;;40.00;19.80;;;10.50;75.00;;;;;;5031570;28;20057;-72
2020/12/02 02:53:25;;;;;;;32.10;17.70;;;10.50;74.90;;;;;;5030171;28;20039;-72
2020/12/02 02:55:53;;;;;;;32.28;16.83;;;10.50;75.00;;;;;;5031476;28;20647;-71
2020/12/02 02:58:19;;;;;;;32.38;17.20;;;10.50;75.00;;;;;;5030496;28;20029;-71
2020/12/02 03:00:44;;;;;;;27.20;15.35;;;10.50;75.00;;;;;;5031661;28;20099;-72
2020/12/02 03:03:12;;;;;;;35.00;17.50;;;10.50;75.00;;;;;;5028912;28;20026;-72
2020/12/02 03:05:39;;;;;;;26.92;16.55;;;10.50;74.90;;;;;;5017938;28;20081;-72
2020/12/02 03:08:09;;;;;;;29.38;16.35;;;10.50;75.00;;;;;;5035171;28;20060;-72
2020/12/02 03:10:38;;;;;;;29.13;16.58;;;10.40;75.00;;;;;;5030365;28;20033;-71
2020/12/02 03:13:29;;;;;;;30.92;16.48;;;10.40;75.10;;;;;;5029330;28;20432;-72
2020/12/02 03:15:55;;;;;;;32.78;17.35;;;10.40;75.20;;;;;;5000933;28;20050;-72
2020/12/02 03:18:24;;;;;;;29.05;17.20;;;10.40;75.30;;;;;;5025192;28;20037;-71
2020/12/02 03:21:01;;;;;;;29.08;15.80;;;10.30;75.30;;;;;;5030882;28;20029;-72
2020/12/02 03:23:27;;;;;;;29.27;15.85;;;10.20;75.40;;;;;;5029490;28;20029;-71
2020/12/02 03:25:53;;;;;;;28.08;15.85;;;10.20;75.60;;;;;;5029789;28;20037;-72
2020/12/02 03:28:20;;;;;;;31.85;17.50;;;10.20;75.80;;;;;;5029316;28;20107;-73
2020/12/02 03:30:47;;;;;;;31.58;18.38;;;10.20;75.60;;;;;;5030932;28;20112;-72
2020/12/02 03:33:15;;;;;;;31.00;17.27;;;10.20;75.60;;;;;;5027804;28;20037;-71
2020/12/02 03:35:42;;;;;;;30.50;16.75;;;10.20;75.60;;;;;;5029669;28;20359;-72
2020/12/02 03:38:08;;;;;;;33.55;17.35;;;10.20;75.60;;;;;;5028591;28;20171;-72
2020/12/02 03:40:33;;;;;;;26.63;15.57;;;10.20;75.60;;;;;;5030229;28;20025;-72
2020/12/02 03:42:59;;;;;;;32.90;16.73;;;10.30;75.70;;;;;;5028569;28;20469;-72
2020/12/02 03:45:25;;;;;;;31.50;16.98;;;10.30;75.60;;;;;;5029701;28;20554;-72
2020/12/02 03:47:51;;;;;;;35.70;19.58;;;10.20;75.70;;;;;;5030126;28;20033;-71
2020/12/02 03:50:17;;;;;;;31.00;17.10;;;10.20;75.80;;;;;;5029888;28;20544;-71
2020/12/02 03:52:42;;;;;;;35.08;18.70;;;10.20;75.90;;;;;;5028769;28;20056;-72
2020/12/02 03:55:09;;;;;;;33.25;17.13;;;10.20;76.00;;;;;;5029622;28;20033;-71
2020/12/02 03:57:35;;;;;;;33.05;18.13;;;10.10;76.10;;;;;;5028226;28;20399;-71
2020/12/02 04:00:03;;;;;;;35.30;19.85;;;10.00;76.30;;;;;;5028793;28;20041;-71
2020/12/02 04:02:29;;;;;;;37.97;18.75;;;10.00;76.40;;;;;;5029752;28;20037;-71
2020/12/02 04:04:55;;;;;;;31.35;18.02;;;10.00;76.50;;;;;;5028218;28;20518;-71
2020/12/02 04:07:20;;;;;;;31.17;16.30;;;10.00;76.50;;;;;;5036220;28;20033;-71
2020/12/02 04:09:46;;;;;;;30.52;16.13;;;10.20;76.30;;;;;;5029705;28;20044;-71
2020/12/02 04:12:12;;;;;;;37.17;18.90;;;10.20;76.10;;;;;;5029814;28;20049;-71
2020/12/02 04:14:37;;;;;;;37.13;20.02;;;10.20;76.10;;;;;;5028571;28;20036;-71
2020/12/02 04:17:03;;;;;;;29.58;17.05;;;10.10;76.30;;;;;;5010851;28;20183;-71
2020/12/02 04:19:28;;;;;;;31.08;17.13;;;10.10;76.50;;;;;;5025982;28;20095;-71
2020/12/02 04:21:58;;;;;;;35.20;17.35;;;10.10;76.50;;;;;;5028898;28;20459;-71
2020/12/02 04:24:24;;;;;;;37.40;17.98;;;10.10;76.50;;;;;;5031598;28;20036;-71
2020/12/02 04:26:50;;;;;;;34.92;17.48;;;10.10;76.70;;;;;;5040568;28;20037;-71
2020/12/02 04:29:15;;;;;;;42.75;20.58;;;10.00;76.80;;;;;;5029075;28;20072;-71
2020/12/02 04:31:41;;;;;;;36.25;16.20;;;10.00;76.80;;;;;;5033796;28;20044;-71
2020/12/02 04:34:06;;;;;;;33.63;17.38;;;10.00;77.00;;;;;;5033912;28;20402;-71
2020/12/02 04:36:32;;;;;;;37.45;19.98;;;10.00;77.00;;;;;;5028862;28;20034;-71
2020/12/02 04:38:58;;;;;;;39.17;17.33;;;9.90;77.10;;;;;;5023158;28;20037;-70
2020/12/02 04:41:28;;;;;;;35.22;16.52;;;10.00;77.10;;;;;;5032334;28;20037;-71
2020/12/02 04:43:54;;;;;;;38.13;18.92;;;10.00;77.00;;;;;;5017967;28;20803;-71
2020/12/02 04:46:26;;;;;;;30.88;16.40;;;10.10;76.80;;;;;;5029092;28;20124;-71
2020/12/02 04:48:54;;;;;;;30.65;17.40;;;10.20;76.60;;;;;;5029467;28;20036;-71
2020/12/02 04:51:27;;;;;;;32.08;15.93;;;10.20;76.40;;;;;;5031700;28;20040;-71
2020/12/02 04:53:57;;;;;;;34.97;17.05;;;10.30;76.20;;;;;;5032409;28;20034;-72
2020/12/02 04:56:25;;;;;;;35.67;17.95;;;10.30;76.10;;;;;;5032859;28;20032;-72
2020/12/02 04:58:52;;;;;;;36.28;18.25;;;10.20;76.10;;;;;;5033142;28;20102;-72
2020/12/02 05:01:23;;;;;;;30.52;16.55;;;10.30;76.10;;;;;;5011034;28;20049;-71
2020/12/02 05:03:55;;;;;;;31.35;15.27;;;10.20;76.00;;;;;;5033411;28;20491;-72
2020/12/02 05:06:33;;;;;;;30.30;15.25;;;10.20;76.10;;;;;;5034708;28;20396;-72
2020/12/02 05:09:07;;;;;;;32.53;15.65;;;10.20;75.90;;;;;;5032594;28;20035;-72
2020/12/02 05:11:33;;;;;;;30.02;15.90;;;10.20;75.80;;;;;;5032592;28;20061;-72
2020/12/02 05:14:00;;;;;;;32.00;15.52;;;10.30;75.80;;;;;;5033087;28;20075;-72
2020/12/02 05:16:26;;;;;;;34.38;16.20;;;10.20;75.80;;;;;;5031280;28;20029;-71
2020/12/02 05:19:04;;;;;;;37.67;17.17;;;10.10;75.80;;;;;;5021130;28;20052;-72
2020/12/02 05:21:43;;;;;;;32.40;15.85;;;10.10;75.90;;;;;;5032996;28;20030;-72
2020/12/02 05:24:14;;;;;;;31.73;16.38;;;10.10;76.20;;;;;;5032234;28;20095;-72
2020/12/02 05:26:46;;;;;;;32.22;16.38;;;10.10;76.10;;;;;;5031571;28;20041;-72
2020/12/02 05:29:28;;;;;;;35.60;17.90;;;10.10;75.90;;;;;;5032463;28;20033;-72
2020/12/02 05:32:12;;;;;;;30.58;16.42;;;10.20;75.90;;;;;;5031317;28;20037;-73
2020/12/02 05:34:37;;;;;;;35.95;16.65;;;10.10;75.90;;;;;;5032479;28;20112;-72
2020/12/02 05:37:08;;;;;;;35.55;17.75;;;10.10;76.10;;;;;;5031417;28;20170;-72
2020/12/02 05:39:41;;;;;;;37.95;17.85;;;10.10;76.10;;;;;;5029016;28;20037;-72
2020/12/02 05:42:25;;;;;;;33.40;17.35;;;10.10;76.10;;;;;;5031964;28;20026;-72
2020/12/02 05:44:56;;;;;;;33.97;17.08;;;10.10;76.20;;;;;;5029951;28;20102;-71
2020/12/02 05:47:22;;;;;;;35.13;15.93;;;10.10;76.30;;;;;;5030466;28;20161;-72
2020/12/02 05:49:54;;;;;;;33.60;17.55;;;10.10;76.60;;;;;;5029925;28;20037;-72
2020/12/02 05:52:31;;;;;;;37.20;17.17;;;10.00;76.60;;;;;;5031544;28;20021;-71
2020/12/02 05:55:05;;;;;;;35.20;16.38;;;10.00;76.70;;;;;;5031131;28;20034;-72
2020/12/02 05:57:31;;;;;;;32.92;16.02;;;10.00;76.80;;;;;;5031682;28;20030;-71
2020/12/02 05:59:57;;;;;;;30.83;14.35;;;10.00;76.90;;;;;;5030115;28;21005;-71
2020/12/02 06:02:24;;;;;;;34.55;15.50;;;10.00;76.80;;;;;;5029954;28;20034;-71
2020/12/02 06:04:52;;;;;;;27.92;14.38;;;10.10;76.70;;;;;;5030788;28;20387;-71
2020/12/02 06:07:19;;;;;;;33.65;16.02;;;10.00;76.50;;;;;;5040625;28;20030;-71
2020/12/02 06:09:47;;;;;;;32.75;14.07;;;10.10;76.60;;;;;;5030028;28;20072;-71
2020/12/02 06:12:21;;;;;;;31.67;16.55;;;10.00;76.60;;;;;;5032244;28;20176;-72
2020/12/02 06:14:48;;;;;;;34.80;15.80;;;10.00;76.80;;;;;;5025991;28;20037;-72
2020/12/02 06:17:24;;;;;;;35.78;17.38;;;9.90;76.90;;;;;;5027941;28;20029;-71
2020/12/02 06:19:51;;;;;;;33.80;16.27;;;9.90;76.90;;;;;;5022358;28;20037;-72
2020/12/02 06:22:50;;;;;;;37.72;17.42;;;9.90;76.90;;;;;;5029364;28;20478;-73
2020/12/02 06:25:51;;;;;;;31.40;15.98;;;10.00;76.90;;;;;;5016971;28;20037;-72
2020/12/02 06:28:37;;;;;;;35.40;16.25;;;10.00;76.80;;;;;;5014320;28;20071;-71
2020/12/02 06:31:06;;;;;;;34.85;15.55;;;10.10;76.80;;;;;;5023728;28;20041;-72
2020/12/02 06:33:37;;;;;;;31.67;13.70;;;10.10;76.70;;;;;;5028813;28;20116;-72
2020/12/02 06:36:23;;;;;;;33.58;16.17;;;10.10;76.70;;;;;;5030456;28;20059;-73
2020/12/02 06:39:05;;;;;;;31.33;14.68;;;10.10;76.70;;;;;;5029116;28;20045;-72
2020/12/02 06:41:37;;;;;;;33.22;15.25;;;10.10;76.70;;;;;;5029642;28;20052;-72
2020/12/02 06:44:16;;;;;;;26.02;13.68;;;10.00;76.80;;;;;;5031713;28;20021;-72
2020/12/02 06:46:53;;;;;;;26.10;13.85;;;10.00;77.00;;;;;;5031515;28;20039;-72
2020/12/02 06:49:24;;;;;;;29.48;15.18;;;10.00;77.10;;;;;;5030418;28;20474;-72
2020/12/02 06:51:59;;;;;;;35.58;16.35;;;9.90;77.20;;;;;;5031143;28;20033;-72
2020/12/02 06:54:29;;;;;;;36.38;16.08;;;9.90;77.20;;;;;;5030145;28;20107;-72
2020/12/02 06:57:04;;;;;;;27.45;15.05;;;10.00;77.30;;;;;;5031231;28;20041;-72
2020/12/02 06:59:29;;;;;;;30.50;14.68;;;10.00;77.20;;;;;;5030580;28;20056;-72
2020/12/02 07:02:07;;;;;;;31.58;16.17;;;9.90;77.20;;;;;;5031147;28;20037;-72
2020/12/02 07:04:36;;;;;;;29.35;14.65;;;9.90;77.20;;;;;;5030421;28;20029;-72
2020/12/02 07:07:03;;;;;;;29.02;15.20;;;9.90;77.30;;;;;;5031491;28;20075;-72
2020/12/02 07:09:29;;;;;;;34.35;15.57;;;9.90;77.40;;;;;;5027859;28;20033;-72
2020/12/02 07:11:57;;;;;;;29.20;16.98;;;9.80;77.50;;;;;;5030765;28;20355;-72
2020/12/02 07:14:37;;;;;;;28.70;13.20;;;9.80;77.70;;;;;;5030055;28;20530;-72
2020/12/02 07:17:10;;;;;;;29.65;14.35;;;9.80;77.70;;;;;;5048847;28;20026;-72
2020/12/02 07:19:45;;;;;;;30.02;15.43;;;9.80;77.70;;;;;;5028938;28;20120;-72
2020/12/02 07:22:26;;;;;;;26.88;13.80;;;9.80;77.60;;;;;;5029545;28;20040;-72
2020/12/02 07:24:58;;;;;;;31.73;13.18;;;9.80;77.50;;;;;;5029781;28;20475;-72
2020/12/02 07:27:24;;;;;;;30.45;14.70;;;9.80;77.50;;;;;;5014267;28;20021;-72
2020/12/02 07:30:03;;;;;;;28.23;14.63;;;9.80;77.50;;;;;;5034712;28;20128;-72
2020/12/02 07:32:29;;;;;;;27.88;15.20;;;9.90;77.20;;;;;;5030395;28;20037;-72
2020/12/02 07:35:06;;;;;;;25.45;13.57;;;9.90;77.10;;;;;;5029913;28;20044;-72
2020/12/02 07:37:32;;;;;;;30.02;14.35;;;9.90;77.00;;;;;;5031040;28;20108;-73
2020/12/02 07:40:00;;;;;;;25.15;12.65;;;10.00;76.90;;;;;;5029545;28;20447;-73
2020/12/02 07:42:39;;;;;;;26.65;13.60;;;10.00;77.00;;;;;;5030075;28;20029;-73
2020/12/02 07:45:13;;;;;;;25.40;12.80;;;10.00;76.90;;;;;;5025876;28;20029;-72
2020/12/02 07:47:40;;;;;;;25.98;13.82;;;10.10;76.80;;;;;;5028614;28;20062;-76
2020/12/02 07:50:28;;;;;;;24.17;13.57;;;10.00;76.50;;;;;;5034906;28;20084;-72
2020/12/02 07:53:16;;;;;;;22.95;11.50;;;10.00;76.40;;;;;;5023913;28;20158;-72
2020/12/02 07:55:49;;;;;;;26.48;13.73;;;10.00;76.40;;;;;;5027229;28;20025;-71
2020/12/02 07:58:40;;;;;;;25.00;12.73;;;9.90;76.60;;;;;;5027904;28;20034;-72
2020/12/02 08:01:28;;;;;;;24.25;13.55;;;9.90;76.80;;;;;;5029315;28;20053;-72
2020/12/02 08:03:53;;;;;;;23.73;11.63;;;9.90;76.90;;;;;;5009354;28;20433;-71
2020/12/02 08:06:29;;;;;;;27.83;13.48;;;9.90;76.80;;;;;;5022548;28;20094;-72
2020/12/02 08:08:54;;;;;;;26.15;12.05;;;9.90;76.80;;;;;;5023049;28;20029;-71
2020/12/02 08:11:20;;;;;;;21.58;12.65;;;10.00;76.60;;;;;;5028496;28;20099;-71
2020/12/02 08:13:55;;;;;;;23.70;10.40;;;10.00;76.50;;;;;;5028728;28;20058;-71
2020/12/02 08:16:42;;;;;;;23.55;12.20;;;10.00;76.40;;;;;;5028878;28;20029;-71
2020/12/02 08:19:11;;;;;;;20.42;11.07;;;10.00;76.30;;;;;;5025028;28;20111;-71
2020/12/02 08:21:38;;;;;;;20.40;11.50;;;10.10;76.40;;;;;;5029709;28;20030;-72
2020/12/02 08:24:13;;;;;;;24.42;11.98;;;10.10;76.20;;;;;;5027700;28;20045;-71
2020/12/02 08:26:42;;;;;;;27.65;11.93;;;10.10;76.00;;;;;;5029858;28;20032;-72
2020/12/02 08:29:09;;;;;;;24.02;11.82;;;10.10;75.70;;;;;;5028105;28;20035;-71
2020/12/02 08:31:36;;;;;;;20.33;10.88;;;10.10;75.90;;;;;;5023744;28;20026;-72
2020/12/02 08:34:14;;;;;;;25.80;13.20;;;11.10;76.40;;;;;;5026312;28;20092;-71
2020/12/02 08:36:50;;;;;;;24.70;12.00;;;10.00;75.90;;;;;;5027731;28;20025;-71
2020/12/02 08:39:31;;;;;;;24.52;13.55;;;10.00;76.00;;;;;;5024384;28;20037;-70
2020/12/02 08:41:58;;;;;;;25.60;12.75;;;9.90;76.20;;;;;;5044589;28;20468;-71
2020/12/02 08:44:24;;;;;;;20.48;10.40;;;9.90;76.50;;;;;;5021638;28;20083;-71
2020/12/02 08:46:53;;;;;;;23.02;11.50;;;9.90;76.70;;;;;;5026637;28;20033;-71
2020/12/02 08:49:24;;;;;;;25.98;12.82;;;9.90;76.60;;;;;;5025828;28;20021;-72
2020/12/02 08:51:50;;;;;;;23.48;11.43;;;9.90;76.40;;;;;;5021647;28;20110;-72
2020/12/02 08:54:18;;;;;;;25.92;11.77;;;10.00;76.40;;;;;;5031605;28;20061;-71
2020/12/02 08:56:44;;;;;;;24.38;11.98;;;10.00;76.20;;;;;;5024762;28;20037;-71
2020/12/02 08:59:12;;;;;;;25.67;11.57;;;10.00;76.10;;;;;;5026117;28;20037;-71
2020/12/02 09:01:39;;;;;;;23.00;13.02;;;10.00;76.10;;;;;;5023659;28;20038;-72
2020/12/02 09:04:05;;;;;;;22.52;10.93;;;10.00;76.10;;;;;;5026179;28;20029;-71
2020/12/02 09:06:30;;;;;;;18.55;10.40;;;10.00;76.20;;;;;;5026635;28;20033;-70
2020/12/02 09:08:56;;;;;;;19.83;11.23;;;10.00;76.10;;;;;;5026433;28;20112;-71
2020/12/02 09:11:24;;;;;;;24.25;11.02;;;10.10;76.10;;;;;;5026141;28;20029;-71
2020/12/02 09:13:50;;;;;;;23.90;11.82;;;10.10;75.70;;;;;;5027516;28;20120;-71
2020/12/02 09:16:20;;;;;;;22.20;11.50;;;10.20;75.70;;;;;;5027320;28;20035;-71
2020/12/02 09:18:46;;;;;;;22.77;10.32;;;10.30;75.50;;;;;;5031592;28;20529;-71
2020/12/02 09:21:12;;;;;;;18.67;11.85;;;10.30;75.20;;;;;;5043772;28;20053;-71
2020/12/02 09:23:37;;;;;;;23.45;10.10;;;10.40;75.10;;;;;;5027897;28;20040;-71
2020/12/02 09:26:03;;;;;;;17.77;9.25;;;10.40;75.00;;;;;;5014064;28;20041;-71
2020/12/02 09:28:28;;;;;;;17.50;9.63;;;10.40;74.90;;;;;;5030890;28;20060;-71
2020/12/02 09:30:54;;;;;;;20.23;10.95;;;10.40;74.90;;;;;;5012087;28;20037;-72
2020/12/02 09:33:20;;;;;;;16.40;10.13;;;10.40;74.80;;;;;;5030212;28;20475;-72
2020/12/02 09:35:45;;;;;;;18.42;10.20;;;10.40;74.70;;;;;;5030448;28;20033;-72
2020/12/02 09:38:11;;;;;;;17.67;9.43;;;10.40;74.60;;;;;;5030019;28;20052;-72
2020/12/02 09:40:37;;;;;;;19.63;10.38;;;10.30;74.60;;;;;;5030374;28;20428;-72
2020/12/02 09:43:09;;;;;;;17.95;11.25;;;10.30;74.70;;;;;;5034418;28;20471;-72
2020/12/02 09:46:06;;;;;;;18.13;9.63;;;10.30;74.80;;;;;;5030385;28;20032;-72
2020/12/02 09:48:31;;;;;;;20.10;10.38;;;10.30;74.40;;;;;;5024385;28;20425;-70
2020/12/02 09:50:57;;;;;;;17.13;10.40;;;10.30;74.50;;;;;;5029130;28;20474;-71
2020/12/02 09:53:29;;;;;;;17.70;10.63;;;10.30;74.60;;;;;;5029066;28;20037;-71
2020/12/02 09:55:56;;;;;;;17.55;9.60;;;10.20;74.40;;;;;;5031471;28;20039;-71
2020/12/02 09:58:23;;;;;;;17.42;10.98;;;10.20;74.70;;;;;;5020800;28;20033;-70
2020/12/02 10:00:54;;;;;;;15.48;8.73;;;10.20;74.70;;;;;;5031084;28;20034;-71
2020/12/02 10:03:57;;;;;;;19.38;11.45;;;10.30;74.70;;;;;;5036743;28;20113;-71
2020/12/02 10:06:32;;;;;;;21.80;10.73;;;10.20;74.60;;;;;;5024521;28;20033;-72
2020/12/02 10:09:33;;;;;;;20.90;11.00;;;10.30;74.70;;;;;;5028787;28;20037;-72
2020/12/02 10:12:37;;;;;;;22.30;11.88;;;10.30;74.60;;;;;;5030013;28;20031;-72
2020/12/02 10:15:31;;;;;;;19.38;9.88;;;10.40;74.50;;;;;;5015901;28;20116;-72
2020/12/02 10:18:16;;;;;;;21.58;12.48;;;10.40;74.30;;;;;;5028549;28;20040;-72
2020/12/02 10:20:47;;;;;;;22.10;11.60;;;10.40;74.40;;;;;;5024556;28;20143;-72
2020/12/02 10:23:47;;;;;;;24.00;12.95;;;10.40;74.40;;;;;;5031303;28;20025;-72
2020/12/02 10:26:41;;;;;;;24.77;11.75;;;10.40;74.40;;;;;;5023981;28;20029;-72
2020/12/02 10:29:33;;;;;;;;;;;10.30;75.80;;;;;;5028594;28;20067;-72
2020/12/02 10:32:24;;;;;;;24.83;11.57;;;10.50;74.20;;;;;;4997732;28;19928;-72
2020/12/02 10:34:50;;;;;;;27.15;13.95;;;10.50;74.20;;;;;;5037065;28;20091;-71
2020/12/02 10:37:21;;;;;;;25.58;13.73;;;10.50;74.10;;;;;;5026918;28;20030;-72
2020/12/02 10:39:46;;;;;;;25.20;12.85;;;10.50;74.10;;;;;;5026991;28;20606;-72
2020/12/02 10:42:38;;;;;;;26.17;13.30;;;10.50;74.20;;;;;;5034695;28;20120;-72
2020/12/02 10:45:21;;;;;;;24.42;14.13;;;10.50;74.30;;;;;;5019073;28;20018;-72
2020/12/02 10:48:24;;;;;;;23.30;12.10;;;11.60;75.00;;;;;;5028042;28;20045;-72
2020/12/02 10:50:51;;;;;;;21.77;12.20;;;10.40;74.30;;;;;;5028756;28;20030;-72
2020/12/02 10:53:21;;;;;;;27.50;14.43;;;10.40;74.50;;;;;;5025030;28;20037;-72
2020/12/02 10:55:46;;;;;;;25.20;12.70;;;10.40;74.50;;;;;;5026077;28;20041;-75
2020/12/02 10:58:25;;;;;;;25.33;12.50;;;10.40;74.40;;;;;;5027259;28;20045;-74
2020/12/02 11:00:55;;;;;;;28.88;14.73;;;10.50;74.40;;;;;;5038495;28;20151;-74
2020/12/02 11:03:22;;;;;;;26.67;13.32;;;10.50;74.40;;;;;;5023581;28;20087;-73
2020/12/02 11:06:26;;;;;;;25.58;14.43;;;10.50;74.50;;;;;;5029703;28;20029;-74
2020/12/02 11:09:16;;;;;;;25.48;11.82;;;10.50;74.50;;;;;;5529053;22;20077;-75
2020/12/02 11:12:18;;;;;;;29.52;13.65;;;10.50;74.60;;;;;;5028511;28;20508;-75
2020/12/02 11:15:17;;;;;;;24.10;13.13;;;10.40;74.60;;;;;;5025559;28;20033;-76
2020/12/02 11:18:07;;;;;;;25.73;13.38;;;10.50;74.70;;;;;;5019505;28;20052;-74
2020/12/02 11:20:51;;;;;;;26.15;13.05;;;10.50;74.60;;;;;;5026795;28;20022;-75
2020/12/02 11:23:44;;;;;;;28.80;14.73;;;10.40;74.50;;;;;;5022987;28;20030;-76
2020/12/02 11:26:35;;;;;;;23.40;12.20;;;10.40;74.80;;;;;;5023708;28;20747;-78
2020/12/02 11:29:05;;;;;;;25.33;12.55;;;10.40;74.80;;;;;;5024094;28;20486;-73
2020/12/02 11:31:58;;;;;;;24.35;12.77;;;10.40;74.60;;;;;;5023691;28;20026;-72
2020/12/02 11:34:29;;;;;;;29.75;14.18;;;10.40;74.50;;;;;;5029523;28;20156;-73
2020/12/02 11:37:08;;;;;;;27.63;14.05;;;10.40;74.60;;;;;;5031036;28;20041;-73
2020/12/02 11:39:44;;;;;;;29.77;14.07;;;10.50;74.60;;;;;;5029047;28;20112;-73
2020/12/02 11:42:27;;;;;;;28.95;14.00;;;10.40;74.60;;;;;;5027660;28;20021;-76
2020/12/02 11:45:14;;;;;;;30.38;13.95;;;10.40;74.70;;;;;;5025023;28;20091;-72
2020/12/02 11:48:01;;;;;;;26.02;13.82;;;10.40;74.80;;;;;;5025710;28;20030;-74
2020/12/02 11:50:31;;;;;;;26.63;13.93;;;10.50;74.80;;;;;;5028106;28;20044;-72
2020/12/02 11:53:15;;;;;;;28.83;15.75;;;10.50;74.80;;;;;;5028979;28;20017;-71
2020/12/02 11:55:40;;;;;;;27.33;12.55;;;10.60;74.50;;;;;;5029191;28;20067;-76
2020/12/02 11:58:12;;;;;;;29.98;13.73;;;10.60;74.30;;;;;;5027034;28;20064;-74
2020/12/02 12:00:39;;;;;;;40.10;14.77;;;10.70;74.10;;;;;;5029891;28;20061;-77
2020/12/02 12:03:25;;;;;;;24.60;13.02;;;10.70;74.00;;;;;;5011225;28;20029;-73
2020/12/02 12:06:16;;;;;;;33.28;14.77;;;10.70;74.00;;;;;;5029532;28;20159;-73
2020/12/02 12:09:14;;;;;;;28.27;14.50;;;10.70;73.80;;;;;;5021854;28;20097;-73
2020/12/02 12:11:40;;;;;;;25.95;13.25;;;10.80;73.80;;;;;;5012409;28;20118;-71
2020/12/02 12:14:06;;;;;;;31.88;14.70;;;10.80;73.80;;;;;;5027499;28;20032;-74
2020/12/02 12:16:37;;;;;;;32.70;15.45;;;10.70;73.60;;;;;;5021812;28;20025;-73
2020/12/02 12:19:36;;;;;;;34.38;15.48;;;10.80;73.80;;;;;;5027540;28;20105;-73
2020/12/02 12:22:23;;;;;;;27.98;13.63;;;10.70;73.70;;;;;;5020737;28;20093;-76
2020/12/02 12:24:49;;;;;;;25.58;12.65;;;10.70;73.80;;;;;;5025890;28;20029;-72
2020/12/02 12:27:19;;;;;;;31.05;13.25;;;10.70;73.80;;;;;;5012793;28;20103;-73
2020/12/02 12:29:45;;;;;;;26.27;14.00;;;10.70;73.90;;;;;;5027821;28;20080;-72
2020/12/02 12:32:17;;;;;;;28.95;13.73;;;10.70;74.00;;;;;;5011565;28;20053;-74
2020/12/02 12:35:00;;;;;;;27.77;14.35;;;10.70;73.90;;;;;;5028304;28;20095;-72
2020/12/02 12:37:34;;;;;;;31.73;13.63;;;10.80;73.70;;;;;;5025713;28;20482;-74
2020/12/02 12:40:12;;;;;;;29.17;14.02;;;10.80;73.60;;;;;;5018421;28;20069;-73
2020/12/02 12:42:38;;;;;;;30.50;12.88;;;10.70;73.40;;;;;;5009745;28;20034;-74
2020/12/02 12:45:10;;;;;;;31.13;15.55;;;10.60;73.70;;;;;;5026256;28;20463;-77
2020/12/02 12:47:37;;;;;;;32.35;15.27;;;10.60;73.90;;;;;;5027039;28;20026;-74
2020/12/02 12:50:07;;;;;;;33.97;14.95;;;10.50;74.00;;;;;;5008151;28;20041;-74
2020/12/02 12:52:35;;;;;;;32.22;16.33;;;10.50;74.20;;;;;;5030179;28;20025;-74
2020/12/02 12:55:02;;;;;;;26.10;13.25;;;10.50;74.20;;;;;;5030679;28;20037;-73
2020/12/02 12:57:29;;;;;;;29.80;14.73;;;10.50;74.00;;;;;;5013779;28;20025;-73